Time;durP1;ratioP1;P1;durP2;ratioP2;P2;SDS_P1;SDS_P2;PMS_P1;PMS_P2;Temp;Humidity;BMP_temperature;BMP_pressure;BME280_temperature;BME280_humidity;BME280_pressure;Samples;Min_cycle;Max_cycle;Signal;HPM_P1;HPM_P2
2023/11/13 00:01:25;;;;;;;2.58;2.47;;;4.40;99.90;;;;;;5043088;28;20649;-71
2023/11/13 00:03:53;;;;;;;2.65;2.45;;;4.40;99.90;;;;;;5060554;28;20725;-72
2023/11/13 00:06:20;;;;;;;2.60;2.50;;;4.40;99.90;;;;;;5059353;28;20207;-72
2023/11/13 00:08:47;;;;;;;2.85;2.65;;;4.30;99.90;;;;;;5061387;28;20203;-71
2023/11/13 00:11:14;;;;;;;2.75;2.65;;;4.40;99.90;;;;;;5058930;28;20308;-72
2023/11/13 00:13:41;;;;;;;2.97;2.88;;;4.40;99.90;;;;;;5061837;28;20236;-72
2023/11/13 00:16:08;;;;;;;2.92;2.72;;;4.40;99.90;;;;;;5061637;28;20251;-72
2023/11/13 00:18:37;;;;;;;3.10;2.95;;;4.40;99.90;;;;;;5060353;28;20625;-72
2023/11/13 00:21:04;;;;;;;2.83;2.63;;;4.50;99.90;;;;;;5058912;28;20568;-72
2023/11/13 00:23:31;;;;;;;2.58;2.47;;;4.50;99.90;;;;;;5060234;28;20306;-72
2023/11/13 00:25:58;;;;;;;2.42;2.33;;;4.50;99.90;;;;;;5057237;28;20252;-72
2023/11/13 00:28:25;;;;;;;2.58;2.47;;;4.50;99.90;;;;;;5060257;28;20807;-72
2023/11/13 00:30:52;;;;;;;2.50;2.40;;;4.50;99.90;;;;;;5058705;28;20280;-72
2023/11/13 00:33:19;;;;;;;2.63;2.53;;;4.40;99.90;;;;;;5060036;28;20731;-72
2023/11/13 00:35:48;;;;;;;2.58;2.47;;;4.30;99.90;;;;;;5062143;28;20879;-72
2023/11/13 00:38:15;;;;;;;3.10;2.90;;;4.30;99.90;;;;;;5059034;28;20194;-72
2023/11/13 00:40:42;;;;;;;2.95;2.80;;;4.20;99.90;;;;;;5056915;28;20224;-72
2023/11/13 00:43:09;;;;;;;2.58;2.47;;;4.20;99.90;;;;;;5060066;28;20260;-72
2023/11/13 00:45:36;;;;;;;2.80;2.70;;;4.20;99.90;;;;;;5062006;28;20194;-72
2023/11/13 00:48:03;;;;;;;2.58;2.47;;;4.20;99.90;;;;;;5062679;28;20279;-72
2023/11/13 00:50:31;;;;;;;2.70;2.60;;;4.30;99.90;;;;;;5045758;28;20283;-72
2023/11/13 00:53:00;;;;;;;2.50;2.40;;;4.30;99.90;;;;;;5063865;28;20784;-71
2023/11/13 00:55:27;;;;;;;3.20;2.90;;;4.30;99.90;;;;;;5027232;28;20287;-73
2023/11/13 00:57:54;;;;;;;2.45;2.35;;;4.40;99.90;;;;;;5046006;28;20252;-72
2023/11/13 01:00:22;;;;;;;2.50;2.40;;;4.40;99.90;;;;;;5063799;28;20256;-71
2023/11/13 01:02:49;;;;;;;2.50;2.40;;;4.40;99.90;;;;;;5063878;28;20279;-72
2023/11/13 01:05:16;;;;;;;2.60;2.40;;;4.40;99.90;;;;;;5043813;28;20285;-73
2023/11/13 01:07:43;;;;;;;2.40;2.30;;;4.40;99.90;;;;;;5059144;28;20214;-72
2023/11/13 01:10:14;;;;;;;2.72;2.63;;;4.40;99.90;;;;;;5061882;28;20202;-72
2023/11/13 01:12:41;;;;;;;2.75;2.65;;;4.30;99.90;;;;;;5062695;28;20289;-72
2023/11/13 01:15:12;;;;;;;2.50;2.40;;;4.30;99.90;;;;;;5064031;28;20202;-72
2023/11/13 01:17:39;;;;;;;2.63;2.53;;;4.30;99.90;;;;;;5060154;28;20290;-72
2023/11/13 01:20:08;;;;;;;2.38;2.28;;;4.30;99.90;;;;;;5061428;28;20210;-73
2023/11/13 01:22:35;;;;;;;2.33;2.22;;;4.30;99.90;;;;;;5063900;28;20229;-73
2023/11/13 01:25:03;;;;;;;2.53;2.42;;;4.30;99.90;;;;;;5063810;28;20205;-72
2023/11/13 01:27:31;;;;;;;2.70;2.60;;;4.30;99.90;;;;;;5062988;28;20205;-72
2023/11/13 01:29:58;;;;;;;3.03;2.83;;;4.30;99.90;;;;;;5062220;28;20618;-72
2023/11/13 01:32:25;;;;;;;2.83;2.72;;;4.20;99.90;;;;;;5062957;28;20291;-72
2023/11/13 01:34:53;;;;;;;3.10;2.90;;;4.10;99.90;;;;;;5037314;28;20711;-72
2023/11/13 01:37:20;;;;;;;3.10;2.90;;;4.00;99.90;;;;;;5062940;28;20210;-72
2023/11/13 01:39:47;;;;;;;3.85;3.65;;;4.00;99.90;;;;;;5062656;28;20256;-72
2023/11/13 01:42:14;;;;;;;3.83;3.63;;;3.80;99.90;;;;;;5063439;28;20213;-72
2023/11/13 01:44:43;;;;;;;3.60;3.40;;;3.70;99.90;;;;;;5060940;28;20214;-72
2023/11/13 01:47:10;;;;;;;3.50;3.30;;;3.70;99.90;;;;;;5061525;28;21116;-72
2023/11/13 01:49:37;;;;;;;3.25;3.05;;;3.70;99.90;;;;;;5040939;28;20198;-72
2023/11/13 01:52:07;;;;;;;2.95;2.83;;;3.70;99.90;;;;;;5062822;28;20214;-72
2023/11/13 01:54:34;;;;;;;3.35;3.15;;;3.70;99.90;;;;;;5058749;28;20214;-72
2023/11/13 01:57:07;;;;;;;3.08;2.88;;;3.70;99.90;;;;;;5061395;28;20224;-72
2023/11/13 01:59:38;;;;;;;3.20;3.00;;;3.70;99.90;;;;;;5044257;28;20205;-72
2023/11/13 02:02:07;;;;;;;3.15;2.95;;;3.70;99.90;;;;;;5061641;28;20276;-71
2023/11/13 02:04:35;;;;;;;2.85;2.75;;;3.80;99.90;;;;;;5061768;28;20222;-72
2023/11/13 02:07:03;;;;;;;3.42;3.20;;;3.80;99.90;;;;;;5064159;28;20689;-72
2023/11/13 02:09:30;;;;;;;3.20;3.05;;;3.80;99.90;;;;;;5062588;28;20264;-72
2023/11/13 02:11:57;;;;;;;3.15;2.95;;;3.80;99.90;;;;;;5061803;28;20226;-73
2023/11/13 02:14:25;;;;;;;2.83;2.70;;;3.80;99.90;;;;;;5063491;28;20622;-72
2023/11/13 02:17:02;;;;;;;2.80;2.70;;;3.80;99.90;;;;;;5059553;28;20210;-73
2023/11/13 02:19:31;;;;;;;2.38;2.28;;;3.80;99.90;;;;;;5061513;28;20206;-73
2023/11/13 02:21:59;;;;;;;2.63;2.53;;;3.80;99.90;;;;;;5062186;28;20299;-73
2023/11/13 02:24:28;;;;;;;2.67;2.58;;;3.80;99.90;;;;;;5060755;28;20297;-71
2023/11/13 02:26:55;;;;;;;2.30;2.20;;;3.90;99.90;;;;;;5059492;28;20255;-72
2023/11/13 02:29:22;;;;;;;2.40;2.30;;;3.90;99.90;;;;;;5061110;28;20194;-71
2023/11/13 02:31:53;;;;;;;2.47;2.38;;;3.90;99.90;;;;;;5047194;28;20226;-72
2023/11/13 02:34:20;;;;;;;3.08;2.90;;;3.90;99.90;;;;;;5063990;28;20768;-73
2023/11/13 02:36:49;;;;;;;2.83;2.72;;;3.90;99.90;;;;;;5065678;28;20206;-73
2023/11/13 02:39:17;;;;;;;2.63;2.53;;;3.90;99.90;;;;;;5047573;28;20205;-72
2023/11/13 02:41:46;;;;;;;2.40;2.30;;;3.90;99.90;;;;;;5066245;28;20224;-73
2023/11/13 02:44:14;;;;;;;2.80;2.70;;;3.80;99.90;;;;;;5067166;28;20217;-72
2023/11/13 02:46:41;;;;;;;2.70;2.60;;;3.80;99.90;;;;;;5064303;28;20256;-72
2023/11/13 02:49:09;;;;;;;2.80;2.70;;;3.90;99.90;;;;;;5064375;28;20205;-73
2023/11/13 02:51:36;;;;;;;3.28;3.08;;;3.80;99.90;;;;;;5066818;28;20234;-72
2023/11/13 02:54:03;;;;;;;3.35;3.15;;;3.70;99.90;;;;;;5065970;28;20241;-72
2023/11/13 02:56:30;;;;;;;3.58;3.38;;;3.60;99.90;;;;;;5063652;28;20207;-72
2023/11/13 02:58:59;;;;;;;3.63;3.30;;;3.50;99.90;;;;;;5048582;28;20218;-73
2023/11/13 03:01:26;;;;;;;2.63;2.42;;;3.40;99.90;;;;;;5062756;28;20754;-72
2023/11/13 03:03:53;;;;;;;3.38;3.15;;;3.40;99.90;;;;;;5064056;28;20648;-72
2023/11/13 03:06:22;;;;;;;3.03;2.92;;;3.30;99.90;;;;;;5062099;28;20210;-72
2023/11/13 03:08:49;;;;;;;3.28;2.90;;;3.40;99.90;;;;;;5061798;28;20644;-72
2023/11/13 03:11:17;;;;;;;2.85;2.75;;;3.40;99.90;;;;;;5048307;28;20684;-72
2023/11/13 03:13:44;;;;;;;3.15;2.95;;;3.40;99.90;;;;;;5064387;28;20782;-71
2023/11/13 03:16:13;;;;;;;2.67;2.58;;;3.40;99.90;;;;;;5062228;28;20260;-72
2023/11/13 03:18:40;;;;;;;3.13;2.97;;;3.40;99.90;;;;;;5063516;28;20714;-73
2023/11/13 03:21:07;;;;;;;2.95;2.83;;;3.50;99.90;;;;;;5048602;28;20217;-71
2023/11/13 03:23:35;;;;;;;2.55;2.45;;;3.50;99.90;;;;;;5064601;28;20225;-72
2023/11/13 03:26:03;;;;;;;3.40;3.20;;;3.50;99.90;;;;;;5063321;28;20207;-72
2023/11/13 03:28:30;;;;;;;2.80;2.70;;;3.50;99.90;;;;;;5048703;28;20208;-72
2023/11/13 03:30:56;;;;;;;2.90;2.80;;;3.50;99.90;;;;;;5045494;28;20317;-73
2023/11/13 03:33:25;;;;;;;2.63;2.53;;;3.50;99.90;;;;;;5064957;28;20274;-72
2023/11/13 03:35:52;;;;;;;2.85;2.72;;;3.50;99.90;;;;;;5062612;28;20206;-72
2023/11/13 03:38:19;;;;;;;2.95;2.85;;;3.50;99.90;;;;;;5064609;28;20206;-72
2023/11/13 03:40:46;;;;;;;2.92;2.83;;;3.50;99.90;;;;;;5047578;28;20317;-72
2023/11/13 03:43:14;;;;;;;2.83;2.72;;;3.50;99.90;;;;;;5062028;28;20272;-72
2023/11/13 03:45:41;;;;;;;2.90;2.70;;;3.50;99.90;;;;;;5063230;28;20735;-72
2023/11/13 03:48:08;;;;;;;3.33;3.15;;;3.50;99.90;;;;;;5062964;28;20679;-72
2023/11/13 03:50:37;;;;;;;2.80;2.70;;;3.50;99.90;;;;;;5064201;28;20277;-72
2023/11/13 03:53:04;;;;;;;2.90;2.70;;;3.50;99.90;;;;;;5064713;28;20202;-72
2023/11/13 03:55:31;;;;;;;3.00;2.90;;;3.50;99.90;;;;;;5064439;28;20187;-72
2023/11/13 03:57:58;;;;;;;3.00;2.90;;;3.50;99.90;;;;;;5045308;28;20821;-72
2023/11/13 04:00:25;;;;;;;2.67;2.58;;;3.50;99.90;;;;;;5062614;28;20202;-72
2023/11/13 04:02:52;;;;;;;2.97;2.88;;;3.50;99.90;;;;;;5062468;28;20232;-71
2023/11/13 04:05:20;;;;;;;3.00;2.80;;;3.40;99.90;;;;;;5047227;28;20229;-72
2023/11/13 04:07:48;;;;;;;2.72;2.63;;;3.40;99.90;;;;;;5064316;28;20757;-72
2023/11/13 04:10:17;;;;;;;2.75;2.65;;;3.40;99.90;;;;;;5059437;28;20206;-72
2023/11/13 04:12:45;;;;;;;2.85;2.75;;;3.40;99.90;;;;;;5048004;28;20267;-72
2023/11/13 04:15:12;;;;;;;2.75;2.65;;;3.40;99.90;;;;;;5061812;28;20717;-72
2023/11/13 04:17:39;;;;;;;2.83;2.63;;;3.40;99.90;;;;;;5064000;28;20260;-72
2023/11/13 04:20:12;;;;;;;2.75;2.65;;;3.40;99.90;;;;;;5063063;28;20202;-72
2023/11/13 04:22:39;;;;;;;2.92;2.72;;;3.40;99.90;;;;;;5063645;28;20840;-72
2023/11/13 04:25:09;;;;;;;2.90;2.70;;;3.30;99.90;;;;;;5061946;28;20267;-71
2023/11/13 04:27:36;;;;;;;2.75;2.60;;;3.40;99.90;;;;;;5064703;28;20202;-71
2023/11/13 04:30:04;;;;;;;2.80;2.70;;;3.40;99.90;;;;;;5062394;28;20266;-72
2023/11/13 04:32:31;;;;;;;3.60;3.40;;;3.40;99.90;;;;;;5064967;28;20351;-72
2023/11/13 04:34:58;;;;;;;3.38;3.17;;;3.30;99.90;;;;;;5063552;28;20198;-72
2023/11/13 04:37:25;;;;;;;2.45;2.35;;;3.30;99.90;;;;;;5062426;28;20206;-72
2023/11/13 04:39:52;;;;;;;2.70;2.60;;;3.30;99.90;;;;;;5063044;28;20207;-70
2023/11/13 04:42:22;;;;;;;2.60;2.50;;;3.40;99.90;;;;;;5044227;28;20305;-73
2023/11/13 04:44:50;;;;;;;3.13;2.92;;;3.40;99.90;;;;;;5062918;28;20214;-72
2023/11/13 04:47:17;;;;;;;2.55;2.45;;;3.40;99.90;;;;;;5041375;28;20198;-72
2023/11/13 04:49:44;;;;;;;2.67;2.58;;;3.30;99.90;;;;;;5058714;28;20202;-72
2023/11/13 04:52:11;;;;;;;2.63;2.53;;;3.30;99.90;;;;;;5063100;28;20222;-71
2023/11/13 04:54:38;;;;;;;3.20;3.00;;;3.30;99.90;;;;;;5044509;28;20289;-71
2023/11/13 04:57:06;;;;;;;2.92;2.83;;;3.30;99.90;;;;;;5063397;28;20285;-72
2023/11/13 04:59:35;;;;;;;2.78;2.35;;;3.30;99.90;;;;;;5059784;28;20275;-72
2023/11/13 05:02:02;;;;;;;2.80;2.70;;;3.30;99.90;;;;;;5058803;28;20214;-72
2023/11/13 05:04:29;;;;;;;2.88;2.78;;;3.30;99.90;;;;;;5063314;28;20222;-72
2023/11/13 05:06:56;;;;;;;2.80;2.70;;;3.30;99.90;;;;;;5058779;28;20652;-71
2023/11/13 05:09:26;;;;;;;2.63;2.53;;;3.30;99.90;;;;;;5061888;28;20737;-71
2023/11/13 05:11:53;;;;;;;2.38;2.28;;;3.30;99.90;;;;;;5061490;28;20222;-72
2023/11/13 05:14:21;;;;;;;2.33;2.22;;;3.30;99.90;;;;;;5058207;28;20260;-72
2023/11/13 05:16:49;;;;;;;2.55;2.45;;;3.30;99.90;;;;;;5058121;28;20289;-72
2023/11/13 05:19:16;;;;;;;3.03;2.83;;;3.30;99.90;;;;;;5058971;28;20301;-71
2023/11/13 05:21:43;;;;;;;2.10;2.00;;;3.40;99.90;;;;;;5039634;28;20253;-71
2023/11/13 05:24:10;;;;;;;2.65;2.55;;;3.40;99.90;;;;;;5056111;28;20688;-72
2023/11/13 05:26:38;;;;;;;2.80;2.70;;;3.40;99.90;;;;;;5060486;28;20204;-72
2023/11/13 05:29:05;;;;;;;3.30;3.10;;;3.90;99.90;;;;;;5058284;28;20199;-72
2023/11/13 05:31:32;;;;;;;2.90;2.72;;;4.40;99.90;;;;;;5059313;28;20229;-72
2023/11/13 05:34:00;;;;;;;3.22;3.05;;;4.50;99.90;;;;;;5061163;28;20198;-71
2023/11/13 05:36:28;;;;;;;2.85;2.75;;;4.40;99.90;;;;;;5059184;28;20210;-73
2023/11/13 05:38:55;;;;;;;3.22;3.03;;;4.20;99.90;;;;;;5040161;28;20234;-71
2023/11/13 05:41:22;;;;;;;2.85;2.65;;;4.10;99.90;;;;;;5060007;28;20244;-73
2023/11/13 05:43:51;;;;;;;2.83;2.72;;;3.90;99.90;;;;;;5061233;28;20206;-73
2023/11/13 05:46:18;;;;;;;2.95;2.83;;;3.80;99.90;;;;;;5061054;28;20290;-72
2023/11/13 05:48:45;;;;;;;2.90;2.80;;;3.70;99.90;;;;;;5062163;28;20752;-72
2023/11/13 05:51:16;;;;;;;3.10;2.90;;;3.60;99.90;;;;;;5060277;28;20222;-71
2023/11/13 05:53:43;;;;;;;3.22;3.03;;;3.60;99.90;;;;;;5059755;28;20293;-73
2023/11/13 05:56:10;;;;;;;3.05;2.85;;;3.50;99.90;;;;;;5060638;28;20252;-71
2023/11/13 05:58:37;;;;;;;2.90;2.80;;;3.50;99.90;;;;;;5060447;28;20202;-72
2023/11/13 06:01:05;;;;;;;2.80;2.70;;;3.50;99.90;;;;;;5056938;28;20739;-72
2023/11/13 06:03:32;;;;;;;3.25;3.05;;;3.50;99.90;;;;;;5044120;28;20761;-73
2023/11/13 06:05:59;;;;;;;2.97;2.88;;;3.40;99.90;;;;;;5045223;28;20214;-73
2023/11/13 06:08:27;;;;;;;3.47;3.35;;;3.40;99.90;;;;;;5044363;28;20221;-73
2023/11/13 06:10:54;;;;;;;3.40;3.20;;;3.40;99.90;;;;;;5058114;28;20693;-72
2023/11/13 06:13:21;;;;;;;3.53;3.33;;;3.40;99.90;;;;;;5063528;28;20213;-74
2023/11/13 06:15:49;;;;;;;3.47;3.28;;;3.40;99.90;;;;;;5042102;28;20277;-72
2023/11/13 06:18:16;;;;;;;3.75;3.55;;;3.40;99.90;;;;;;5060875;28;20214;-73
2023/11/13 06:20:44;;;;;;;3.70;3.50;;;3.50;99.90;;;;;;5062964;28;20699;-73
2023/11/13 06:23:12;;;;;;;3.25;3.15;;;3.50;99.90;;;;;;5028586;28;20230;-73
2023/11/13 06:25:41;;;;;;;3.20;3.00;;;3.50;99.90;;;;;;5061803;28;20360;-72
2023/11/13 06:28:08;;;;;;;2.88;2.78;;;3.50;99.90;;;;;;5060864;28;20249;-73
2023/11/13 06:30:36;;;;;;;3.22;3.03;;;3.50;99.90;;;;;;5057590;28;20301;-74
2023/11/13 06:33:03;;;;;;;3.60;3.30;;;3.50;99.90;;;;;;5059663;28;20234;-73
2023/11/13 06:35:32;;;;;;;2.75;2.65;;;3.50;99.90;;;;;;5041866;28;20198;-74
2023/11/13 06:37:58;;;;;;;3.20;3.00;;;3.50;99.90;;;;;;5063700;28;20263;-76
2023/11/13 06:40:25;;;;;;;3.05;2.78;;;3.50;99.90;;;;;;5060274;28;21256;-76
2023/11/13 06:42:54;;;;;;;3.42;3.22;;;3.80;99.90;;;;;;5042096;28;20194;-73
2023/11/13 06:45:21;;;;;;;3.17;2.97;;;4.00;99.90;;;;;;5058428;28;20635;-73
2023/11/13 06:47:50;;;;;;;3.60;3.40;;;4.00;99.90;;;;;;5041401;28;20199;-73
2023/11/13 06:50:17;;;;;;;3.47;3.20;;;3.90;99.90;;;;;;5060025;28;20195;-73
2023/11/13 06:52:44;;;;;;;3.40;3.20;;;3.90;99.90;;;;;;5041852;28;20198;-73
2023/11/13 06:55:13;;;;;;;3.10;2.90;;;3.80;99.90;;;;;;5060042;28;20194;-73
2023/11/13 06:57:41;;;;;;;3.25;3.05;;;3.80;99.90;;;;;;5043202;28;20234;-73
2023/11/13 07:00:12;;;;;;;2.75;2.65;;;3.70;99.90;;;;;;5059950;28;20204;-73
2023/11/13 07:02:41;;;;;;;3.30;3.10;;;3.70;99.90;;;;;;5062307;28;20214;-73
2023/11/13 07:05:10;;;;;;;3.22;3.03;;;3.70;99.90;;;;;;5060092;28;20210;-73
2023/11/13 07:07:38;;;;;;;3.78;3.42;;;3.70;99.90;;;;;;5060531;28;20206;-73
2023/11/13 07:10:06;;;;;;;3.35;3.15;;;3.70;99.90;;;;;;5058257;28;20207;-73
2023/11/13 07:12:34;;;;;;;4.50;3.50;;;3.80;99.90;;;;;;5063421;28;20258;-73
2023/11/13 07:15:02;;;;;;;3.50;3.30;;;3.80;99.90;;;;;;5061151;28;20278;-73
2023/11/13 07:17:31;;;;;;;3.20;3.00;;;3.80;99.90;;;;;;5064286;28;20202;-73
2023/11/13 07:19:58;;;;;;;3.00;2.90;;;3.80;99.90;;;;;;5066287;28;20237;-73
2023/11/13 07:22:28;;;;;;;3.22;3.10;;;3.80;99.90;;;;;;5063363;28;20219;-73
2023/11/13 07:24:55;;;;;;;3.42;3.22;;;3.80;99.90;;;;;;5066512;28;20224;-73
2023/11/13 07:27:22;;;;;;;3.78;3.58;;;3.80;99.90;;;;;;5064056;28;20198;-72
2023/11/13 07:29:49;;;;;;;3.60;3.40;;;3.90;99.90;;;;;;5063310;28;20201;-73
2023/11/13 07:32:16;;;;;;;3.60;3.40;;;4.00;99.90;;;;;;5046009;28;20301;-72
2023/11/13 07:34:48;;;;;;;3.28;3.08;;;4.60;99.90;;;;;;5060422;28;20194;-73
2023/11/13 07:37:15;;;;;;;3.75;3.33;;;5.50;99.90;;;;;;5042199;28;20202;-73
2023/11/13 07:39:43;;;;;;;3.50;3.30;;;6.60;99.90;;;;;;5040562;28;20750;-73
2023/11/13 07:42:12;;;;;;;3.70;3.50;;;7.60;99.90;;;;;;5043744;28;20222;-73
2023/11/13 07:44:45;;;;;;;3.60;3.30;;;8.40;99.90;;;;;;5060666;28;20333;-74
2023/11/13 07:47:15;;;;;;;4.45;4.05;;;8.90;99.90;;;;;;5041739;28;20218;-73
2023/11/13 07:49:43;;;;;;;4.70;4.25;;;9.60;99.90;;;;;;5059305;28;20206;-73
2023/11/13 07:52:12;;;;;;;3.60;3.40;;;9.90;99.90;;;;;;5063093;28;20214;-74
2023/11/13 07:54:40;;;;;;;4.43;4.13;;;10.40;99.90;;;;;;5058980;28;20285;-73
2023/11/13 07:57:08;;;;;;;3.80;3.50;;;10.60;99.90;;;;;;5059638;28;20304;-73
2023/11/13 07:59:37;;;;;;;4.00;3.70;;;10.90;99.90;;;;;;5060293;28;20268;-74
2023/11/13 08:02:04;;;;;;;4.00;3.70;;;11.00;99.90;;;;;;5059155;28;20256;-74
2023/11/13 08:04:32;;;;;;;3.33;3.05;;;11.30;99.90;;;;;;5040536;28;20207;-73
2023/11/13 08:06:59;;;;;;;3.47;3.28;;;11.40;99.90;;;;;;5059881;28;20886;-74
2023/11/13 08:09:30;;;;;;;3.88;3.55;;;11.40;99.90;;;;;;5059401;28;20204;-73
2023/11/13 08:11:57;;;;;;;3.88;3.58;;;11.70;99.90;;;;;;5060475;28;20268;-74
2023/11/13 08:14:24;;;;;;;4.43;3.97;;;11.90;99.90;;;;;;5059058;28;20194;-74
2023/11/13 08:16:53;;;;;;;3.13;2.90;;;12.00;99.90;;;;;;5057245;28;20226;-74
2023/11/13 08:19:20;;;;;;;3.75;3.45;;;12.00;99.90;;;;;;5026190;28;20211;-73
2023/11/13 08:21:48;;;;;;;3.28;3.08;;;12.20;99.90;;;;;;5057459;28;20225;-73
2023/11/13 08:24:19;;;;;;;4.63;3.30;;;12.40;99.90;;;;;;5037638;28;20847;-74
2023/11/13 08:26:49;;;;;;;3.60;3.30;;;12.60;99.90;;;;;;5060594;28;20259;-74
2023/11/13 08:29:16;;;;;;;2.97;2.78;;;12.80;99.90;;;;;;5060208;28;20255;-73
2023/11/13 08:31:44;;;;;;;3.60;3.30;;;12.90;99.90;;;;;;5056480;28;20297;-73
2023/11/13 08:34:11;;;;;;;2.72;2.53;;;12.90;99.90;;;;;;5043181;28;20656;-74
2023/11/13 08:36:38;;;;;;;4.32;2.60;;;12.60;99.90;;;;;;5040689;28;20667;-73
2023/11/13 08:39:05;;;;;;;2.60;2.40;;;12.70;99.90;;;;;;5058146;28;20730;-74
2023/11/13 08:41:33;;;;;;;2.85;2.65;;;12.70;99.90;;;;;;5058503;28;20219;-74
2023/11/13 08:44:03;;;;;;;3.10;2.88;;;12.90;99.90;;;;;;5056995;28;20267;-74
2023/11/13 08:46:33;;;;;;;3.90;2.67;;;13.10;99.90;;;;;;5054599;28;20211;-74
2023/11/13 08:49:00;;;;;;;3.10;2.70;;;13.20;99.90;;;;;;5042179;28;20251;-74
2023/11/13 08:51:28;;;;;;;3.03;2.75;;;13.30;99.90;;;;;;5059557;28;20234;-76
2023/11/13 08:53:55;;;;;;;3.38;3.03;;;13.40;99.90;;;;;;5058441;28;20226;-75
2023/11/13 08:56:23;;;;;;;3.25;2.97;;;13.50;99.90;;;;;;5059868;28;20191;-74
2023/11/13 08:58:53;;;;;;;3.35;2.80;;;13.20;99.90;;;;;;5057066;28;20202;-74
2023/11/13 09:01:25;;;;;;;3.30;2.75;;;13.20;99.90;;;;;;5059742;28;20234;-77
2023/11/13 09:03:54;;;;;;;2.65;2.45;;;13.20;99.90;;;;;;5058815;28;20845;-76
2023/11/13 09:06:22;;;;;;;2.78;2.58;;;13.90;99.90;;;;;;5058553;28;20221;-76
2023/11/13 09:08:53;;;;;;;3.13;2.83;;;15.00;99.90;;;;;;5040700;28;20222;-76
2023/11/13 09:11:21;;;;;;;3.65;2.80;;;16.20;99.90;;;;;;5040360;28;20295;-76
2023/11/13 09:13:48;;;;;;;3.00;2.80;;;16.80;99.90;;;;;;5044020;28;20202;-76
2023/11/13 09:16:19;;;;;;;2.90;2.70;;;17.20;99.90;;;;;;5041352;28;20289;-76
2023/11/13 09:18:48;;;;;;;2.88;2.67;;;18.40;99.90;;;;;;5054575;28;20198;-76
2023/11/13 09:21:17;;;;;;;4.18;2.97;;;18.70;99.90;;;;;;5039501;28;20301;-76
2023/11/13 09:23:46;;;;;;;3.10;2.90;;;18.10;99.90;;;;;;5038884;28;20206;-75
2023/11/13 09:26:13;;;;;;;2.70;2.50;;;17.00;99.90;;;;;;5057730;28;20223;-75
2023/11/13 09:28:40;;;;;;;2.83;2.63;;;16.40;99.90;;;;;;5058846;28;20207;-77
2023/11/13 09:31:10;;;;;;;2.47;2.28;;;15.60;99.90;;;;;;5055709;28;20219;-77
2023/11/13 09:33:39;;;;;;;2.60;2.40;;;15.00;99.90;;;;;;5050511;28;20271;-75
2023/11/13 09:36:09;;;;;;;2.78;2.38;;;14.60;99.90;;;;;;5061272;28;21010;-76
2023/11/13 09:38:37;;;;;;;2.83;2.30;;;14.40;99.90;;;;;;5023870;28;20217;-76
2023/11/13 09:41:04;;;;;;;4.60;2.30;;;13.90;99.90;;;;;;5036984;28;20699;-76
2023/11/13 09:43:34;;;;;;;2.72;2.53;;;13.70;99.90;;;;;;5058170;28;20275;-77
2023/11/13 09:46:06;;;;;;;2.30;2.10;;;13.60;99.90;;;;;;5057427;28;23005;-76
2023/11/13 09:48:43;;;;;;;3.22;2.92;;;13.50;99.90;;;;;;5056461;28;20232;-76
2023/11/13 09:51:14;;;;;;;2.15;2.05;;;13.50;99.90;;;;;;5059002;28;20248;-76
2023/11/13 09:53:43;;;;;;;2.53;2.33;;;13.60;99.90;;;;;;5057525;28;20210;-76
2023/11/13 09:56:15;;;;;;;2.63;2.42;;;13.80;99.90;;;;;;5057991;28;20198;-76
2023/11/13 09:58:43;;;;;;;3.00;2.70;;;14.00;99.90;;;;;;5058231;28;20623;-76
2023/11/13 10:01:14;;;;;;;2.88;2.67;;;13.80;99.90;;;;;;5040081;28;20218;-76
2023/11/13 10:03:41;;;;;;;2.65;2.45;;;13.80;99.90;;;;;;5058718;28;20281;-76
2023/11/13 10:06:12;;;;;;;2.30;2.20;;;13.90;99.90;;;;;;5059318;28;20218;-76
2023/11/13 10:08:44;;;;;;;3.28;2.50;;;13.30;99.90;;;;;;5057481;28;20285;-76
2023/11/13 10:11:14;;;;;;;4.60;2.80;;;12.90;99.90;;;;;;5057615;28;20257;-76
2023/11/13 10:13:41;;;;;;;2.78;2.55;;;12.80;99.90;;;;;;5058408;28;20686;-76
2023/11/13 10:16:18;;;;;;;2.67;2.30;;;12.70;99.90;;;;;;5056296;28;20252;-76
2023/11/13 10:18:46;;;;;;;2.30;2.10;;;12.40;99.90;;;;;;5057112;28;20206;-76
2023/11/13 10:21:22;;;;;;;3.38;3.05;;;12.30;99.90;;;;;;5038903;28;20566;-76
2023/11/13 10:23:49;;;;;;;3.08;2.78;;;12.00;99.90;;;;;;5056462;28;21421;-76
2023/11/13 10:26:26;;;;;;;2.90;2.60;;;11.90;99.90;;;;;;5043514;28;20687;-76
2023/11/13 10:28:54;;;;;;;2.90;2.70;;;12.00;99.90;;;;;;5057262;28;20275;-76
2023/11/13 10:31:25;;;;;;;3.03;2.83;;;12.30;99.90;;;;;;5041778;28;20217;-77
2023/11/13 10:34:00;;;;;;;3.08;2.88;;;12.20;99.90;;;;;;5056466;28;20206;-76
2023/11/13 10:36:29;;;;;;;3.40;3.10;;;12.50;99.90;;;;;;5037535;28;20210;-75
2023/11/13 10:38:57;;;;;;;3.60;2.67;;;13.20;99.90;;;;;;5040180;28;20263;-76
2023/11/13 10:41:29;;;;;;;2.70;2.50;;;13.50;99.90;;;;;;5056229;28;20734;-76
2023/11/13 10:43:56;;;;;;;3.00;2.80;;;13.90;99.90;;;;;;5057710;28;20198;-75
2023/11/13 10:46:31;;;;;;;2.97;2.70;;;13.90;99.90;;;;;;5024210;28;20699;-75
2023/11/13 10:48:59;;;;;;;2.65;2.45;;;13.90;99.90;;;;;;5054303;28;20214;-75
2023/11/13 10:51:27;;;;;;;2.80;2.60;;;13.70;99.90;;;;;;5057625;28;20214;-75
2023/11/13 10:53:59;;;;;;;2.92;2.65;;;13.50;99.90;;;;;;5061260;28;20736;-76
2023/11/13 10:56:26;;;;;;;2.60;2.38;;;13.40;99.90;;;;;;5062878;28;20197;-74
2023/11/13 10:58:54;;;;;;;2.53;2.33;;;12.80;99.90;;;;;;5062999;28;20243;-76
2023/11/13 11:01:25;;;;;;;3.47;2.30;;;12.40;99.90;;;;;;5028627;28;20290;-75
2023/11/13 11:03:57;;;;;;;2.42;2.22;;;12.30;99.90;;;;;;5059918;28;20225;-76
2023/11/13 11:06:32;;;;;;;2.67;2.47;;;12.70;99.90;;;;;;5062467;28;20965;-75
2023/11/13 11:09:04;;;;;;;1.98;1.88;;;13.10;99.90;;;;;;5061199;28;20204;-75
2023/11/13 11:11:34;;;;;;;2.42;2.22;;;13.30;99.90;;;;;;5059009;28;20218;-76
2023/11/13 11:14:06;;;;;;;2.38;2.17;;;13.10;99.90;;;;;;5060622;28;20218;-76
2023/11/13 11:16:40;;;;;;;2.70;2.50;;;13.20;99.90;;;;;;5060248;28;20193;-76
2023/11/13 11:19:17;;;;;;;2.97;2.60;;;13.40;99.90;;;;;;5060527;28;20611;-76
2023/11/13 11:21:50;;;;;;;2.78;2.58;;;13.50;99.90;;;;;;5043589;28;20232;-76
2023/11/13 11:24:40;;;;;;;2.50;2.30;;;13.80;99.90;;;;;;5062491;28;20659;-75
2023/11/13 11:27:07;;;;;;;2.80;2.60;;;14.20;99.90;;;;;;5043188;28;20525;-76
2023/11/13 11:29:36;;;;;;;2.33;2.15;;;14.20;99.90;;;;;;5061401;28;20198;-75
2023/11/13 11:32:20;;;;;;;2.88;2.67;;;14.50;99.90;;;;;;5042446;28;20642;-76
2023/11/13 11:35:01;;;;;;;3.88;2.40;;;14.50;99.90;;;;;;5061694;28;20248;-76
2023/11/13 11:37:28;;;;;;;2.20;2.00;;;14.20;99.90;;;;;;5060212;28;20260;-71
2023/11/13 11:40:04;;;;;;;3.20;2.20;;;14.30;99.90;;;;;;5060470;28;20202;-76
2023/11/13 11:42:32;;;;;;;2.25;2.05;;;14.10;99.90;;;;;;5059531;28;20222;-77
2023/11/13 11:45:03;;;;;;;2.50;2.10;;;13.70;99.90;;;;;;5064459;28;20202;-69
2023/11/13 11:47:30;;;;;;;2.38;2.20;;;13.60;99.90;;;;;;5059126;28;20221;-69
2023/11/13 11:49:58;;;;;;;2.13;2.03;;;13.50;99.90;;;;;;5059207;28;20256;-69
2023/11/13 11:52:43;;;;;;;2.40;2.20;;;13.50;99.90;;;;;;5059095;28;20464;-69
2023/11/13 11:55:13;;;;;;;2.55;2.35;;;13.40;99.90;;;;;;5058592;28;20207;-68
2023/11/13 11:57:44;;;;;;;1.98;1.88;;;13.10;99.90;;;;;;5042825;28;20286;-70
2023/11/13 12:00:19;;;;;;;2.05;1.88;;;13.00;99.90;;;;;;5059800;28;20288;-69
2023/11/13 12:02:47;;;;;;;2.28;2.10;;;13.20;99.90;;;;;;5054386;28;20202;-69
2023/11/13 12:05:14;;;;;;;2.20;2.00;;;13.40;99.90;;;;;;5059259;28;20206;-69
2023/11/13 12:07:41;;;;;;;2.03;1.85;;;13.70;99.90;;;;;;5062097;28;20271;-70
2023/11/13 12:10:12;;;;;;;2.28;2.08;;;13.70;99.90;;;;;;5058362;28;20292;-70
2023/11/13 12:12:41;;;;;;;2.25;2.15;;;13.90;99.90;;;;;;5060649;28;20209;-69
2023/11/13 12:15:09;;;;;;;2.35;2.20;;;13.60;99.90;;;;;;5059141;28;20245;-69
2023/11/13 12:17:38;;;;;;;2.85;2.58;;;13.30;99.90;;;;;;5061671;28;20342;-68
2023/11/13 12:20:09;;;;;;;2.08;1.98;;;13.10;99.90;;;;;;5058421;28;20289;-68
2023/11/13 12:22:36;;;;;;;1.98;1.88;;;12.80;99.90;;;;;;5060089;28;20209;-69
2023/11/13 12:25:04;;;;;;;2.95;2.08;;;12.80;99.90;;;;;;5058925;28;20210;-69
2023/11/13 12:27:32;;;;;;;2.10;2.00;;;13.10;99.90;;;;;;5059482;28;20227;-70
2023/11/13 12:30:01;;;;;;;1.73;1.63;;;13.30;99.90;;;;;;5057049;28;20247;-69
2023/11/13 12:32:29;;;;;;;2.10;2.00;;;13.20;99.90;;;;;;5060819;28;20241;-69
2023/11/13 12:34:57;;;;;;;2.17;1.98;;;13.30;99.90;;;;;;5057581;28;20293;-69
2023/11/13 12:37:26;;;;;;;3.08;2.40;;;13.40;99.90;;;;;;5057216;28;20256;-69
2023/11/13 12:39:54;;;;;;;2.30;2.10;;;13.10;99.90;;;;;;5059019;28;20311;-69
2023/11/13 12:42:21;;;;;;;2.17;2.00;;;13.00;99.90;;;;;;5059947;28;20331;-69
2023/11/13 12:44:53;;;;;;;2.92;2.20;;;12.90;99.90;;;;;;5053760;28;20887;-69
2023/11/13 12:47:21;;;;;;;2.50;2.33;;;13.00;99.90;;;;;;5054326;28;20225;-73
2023/11/13 12:49:48;;;;;;;2.53;2.35;;;12.90;99.90;;;;;;5059254;28;20207;-73
2023/11/13 12:52:17;;;;;;;2.17;2.08;;;12.90;99.90;;;;;;5059291;28;20226;-73
2023/11/13 12:54:45;;;;;;;2.75;2.40;;;12.60;99.90;;;;;;5058228;28;20883;-72
2023/11/13 12:57:15;;;;;;;2.42;1.90;;;12.40;99.90;;;;;;5040200;28;20190;-72
2023/11/13 12:59:43;;;;;;;2.30;2.10;;;12.00;99.90;;;;;;5037105;28;20203;-72